createdAt,value
2022-10-23T00:01:42.838Z,95184.75
2022-10-23T00:04:15.673Z,95196.28
2022-10-23T00:06:43.334Z,95184.47
2022-10-23T00:09:13.288Z,95183.75
2022-10-23T00:11:40.323Z,95181.00
2022-10-23T00:14:08.345Z,95176.69
2022-10-23T00:16:34.834Z,95170.03
2022-10-23T00:19:01.876Z,95180.75
2022-10-23T00:21:28.602Z,95180.41
2022-10-23T00:24:00.435Z,95171.00
2022-10-23T00:26:27.119Z,95165.13
2022-10-23T00:28:53.949Z,95160.81
2022-10-23T00:31:21.481Z,95168.09
2022-10-23T00:33:48.889Z,95172.44
2022-10-23T00:36:18.661Z,95170.28
2022-10-23T00:38:46.117Z,95172.59
2022-10-23T00:41:20.457Z,95171.47
2022-10-23T00:44:02.188Z,95179.22
2022-10-23T00:46:28.858Z,95178.88
2022-10-23T00:48:55.554Z,95171.44
2022-10-23T00:51:22.057Z,95170.41
2022-10-23T00:54:01.057Z,95170.34
2022-10-23T00:56:38.551Z,95179.03
2022-10-23T00:59:05.215Z,95180.47
2022-10-23T01:01:31.811Z,95171.28
2022-10-23T01:03:58.558Z,95169.09
2022-10-23T01:06:43.496Z,95178.31
2022-10-23T01:09:27.158Z,95174.41
2022-10-23T01:11:59.830Z,95167.84
2022-10-23T01:14:55.469Z,95166.19
2022-10-23T01:17:27.392Z,95169.47
2022-10-23T01:20:19.946Z,95175.63
2022-10-23T01:23:07.703Z,95177.88
2022-10-23T01:25:52.604Z,95179.81
2022-10-23T01:28:27.429Z,95182.81
2022-10-23T01:30:54.117Z,95171.44
2022-10-23T01:33:35.944Z,95177.22
2022-10-23T01:36:12.734Z,95169.47
2022-10-23T01:38:51.456Z,95152.94
2022-10-23T01:41:29.936Z,95155.84
2022-10-23T01:43:57.005Z,95154.66
2022-10-23T01:46:23.785Z,95155.03
2022-10-23T01:48:54.106Z,95149.16
2022-10-23T01:51:25.043Z,95147.41
2022-10-23T01:53:53.016Z,95148.56
2022-10-23T01:56:23.100Z,95151.47
2022-10-23T01:58:53.003Z,95146.56
2022-10-23T02:01:20.483Z,95140.16
2022-10-23T02:03:48.127Z,95126.00
2022-10-23T02:06:14.797Z,95136.16
2022-10-23T02:08:41.578Z,95133.53
2022-10-23T02:11:10.567Z,95126.94
2022-10-23T02:14:04.965Z,95126.47
2022-10-23T02:16:40.894Z,95122.75
2022-10-23T02:19:19.417Z,95120.13
2022-10-23T02:21:56.243Z,95119.31
2022-10-23T02:24:33.588Z,95125.41
2022-10-23T02:27:03.108Z,95124.91
2022-10-23T02:29:40.559Z,95123.28
2022-10-23T02:32:08.929Z,95119.19
2022-10-23T02:34:36.127Z,95112.44
2022-10-23T02:37:02.842Z,95113.28
2022-10-23T02:39:29.587Z,95104.44
2022-10-23T02:42:10.246Z,95093.75
2022-10-23T02:44:44.319Z,95110.91
2022-10-23T02:47:20.093Z,95107.09
2022-10-23T02:49:55.462Z,95095.94
2022-10-23T02:52:55.347Z,95091.84
2022-10-23T02:55:40.091Z,95102.03
2022-10-23T02:58:25.313Z,95101.03
2022-10-23T03:00:55.896Z,95093.97
2022-10-23T03:03:27.559Z,95093.31
2022-10-23T03:05:54.235Z,95099.38
2022-10-23T03:08:20.708Z,95092.56
2022-10-23T03:13:19.004Z,95073.00
2022-10-23T03:15:45.459Z,95080.34
2022-10-23T03:18:11.950Z,95067.25
2022-10-23T03:20:38.388Z,95060.69
2022-10-23T03:23:05.291Z,95063.50
2022-10-23T03:25:31.857Z,95061.91
2022-10-23T03:27:58.366Z,95055.66
2022-10-23T03:30:25.263Z,95068.16
2022-10-23T03:32:51.697Z,95062.78
2022-10-23T03:35:18.637Z,95070.16
2022-10-23T03:37:45.410Z,95089.88
2022-10-23T03:40:11.982Z,95091.00
2022-10-23T03:42:39.155Z,95087.25
2022-10-23T03:45:06.246Z,95092.50
2022-10-23T03:47:32.720Z,95086.59
2022-10-23T03:49:59.172Z,95096.97
2022-10-23T03:52:25.645Z,95096.19
2022-10-23T03:54:52.132Z,95089.16
2022-10-23T03:57:18.672Z,95088.72
2022-10-23T03:59:45.172Z,95089.50
2022-10-23T04:02:11.746Z,95090.69
2022-10-23T04:04:38.328Z,95083.97
2022-10-23T04:07:04.769Z,95089.25
2022-10-23T04:09:31.243Z,95087.84
2022-10-23T04:11:57.797Z,95089.06
2022-10-23T04:14:44.513Z,95091.78
2022-10-23T04:17:13.202Z,95095.72
2022-10-23T04:19:39.645Z,95080.50
2022-10-23T04:22:06.099Z,95082.13
2022-10-23T04:24:32.625Z,95087.41
2022-10-23T04:26:59.084Z,95089.13
2022-10-23T04:29:25.751Z,95088.47
2022-10-23T04:31:54.570Z,95100.69
2022-10-23T04:34:21.144Z,95101.94
2022-10-23T04:36:47.585Z,95097.56
2022-10-23T04:39:14.120Z,95089.06
2022-10-23T04:41:40.798Z,95084.56
2022-10-23T04:44:07.753Z,95085.81
2022-10-23T04:46:34.254Z,95086.47
2022-10-23T04:49:00.707Z,95087.44
2022-10-23T04:51:27.257Z,95088.47
2022-10-23T04:53:53.739Z,95080.38
2022-10-23T04:56:20.211Z,95082.13
2022-10-23T04:58:46.674Z,95085.69
2022-10-23T05:01:13.191Z,95091.91
2022-10-23T05:03:39.753Z,95101.47
2022-10-23T05:06:06.431Z,95096.47
2022-10-23T05:08:32.948Z,95094.22
2022-10-23T05:10:59.404Z,95094.25
2022-10-23T05:13:25.865Z,95092.16
2022-10-23T05:15:53.298Z,95092.28
2022-10-23T05:18:30.191Z,95088.00
2022-10-23T05:21:02.719Z,95079.69
2022-10-23T05:23:30.879Z,95080.84
2022-10-23T05:25:57.375Z,95091.56
2022-10-23T05:28:23.907Z,95085.03
2022-10-23T05:30:50.429Z,95083.00
2022-10-23T05:33:17.127Z,95086.28
2022-10-23T05:35:44.473Z,95093.75
2022-10-23T05:38:11.408Z,95088.44
2022-10-23T05:43:09.257Z,95085.63
2022-10-23T05:45:35.807Z,95085.38
2022-10-23T05:48:11.014Z,95082.72
2022-10-23T05:50:48.813Z,95090.63
2022-10-23T05:53:15.366Z,95080.94
2022-10-23T05:55:41.942Z,95071.94
2022-10-23T05:58:08.674Z,95089.72
2022-10-23T06:00:35.174Z,95086.34
2022-10-23T06:03:02.890Z,95091.34
2022-10-23T06:05:29.390Z,95083.28
2022-10-23T06:07:59.337Z,95077.97
2022-10-23T06:10:26.530Z,95069.31
2022-10-23T06:12:53.012Z,95073.69
2022-10-23T06:15:19.823Z,95079.88
2022-10-23T06:17:46.446Z,95078.56
2022-10-23T06:20:13.045Z,95079.91
2022-10-23T06:22:39.691Z,95083.09
2022-10-23T06:25:06.875Z,95090.25
2022-10-23T06:27:33.337Z,95092.41
2022-10-23T06:29:59.876Z,95086.16
2022-10-23T06:32:26.471Z,95092.97
2022-10-23T06:34:52.952Z,95092.59
2022-10-23T06:37:20.188Z,95098.94
2022-10-23T06:39:46.832Z,95089.72
2022-10-23T06:42:13.284Z,95095.16
2022-10-23T06:44:39.736Z,95090.81
2022-10-23T06:47:06.324Z,95090.94
2022-10-23T06:49:32.832Z,95083.63
2022-10-23T06:51:59.287Z,95073.88
2022-10-23T06:54:25.830Z,95077.56
2022-10-23T06:56:52.344Z,95077.31
2022-10-23T06:59:18.933Z,95079.81
2022-10-23T07:01:45.727Z,95079.91
2022-10-23T07:04:12.358Z,95076.38
2022-10-23T07:06:38.908Z,95080.38
2022-10-23T07:09:05.343Z,95080.25
2022-10-23T07:11:31.852Z,95081.38
2022-10-23T07:13:58.737Z,95075.22
2022-10-23T07:16:25.435Z,95083.88
2022-10-23T07:18:57.524Z,95081.84
2022-10-23T07:21:25.078Z,95074.06
2022-10-23T07:23:51.849Z,95077.44
2022-10-23T07:26:21.878Z,95074.06
2022-10-23T07:28:49.488Z,95076.41
2022-10-23T07:31:16.378Z,95071.09
2022-10-23T07:33:42.859Z,95075.06
2022-10-23T07:36:10.094Z,95069.59
2022-10-23T07:38:36.679Z,95072.34
2022-10-23T07:41:03.233Z,95054.34
2022-10-23T07:43:29.784Z,95056.28
2022-10-23T07:45:56.411Z,95062.03
2022-10-23T07:48:23.322Z,95060.22
2022-10-23T07:50:50.854Z,95052.00
2022-10-23T07:53:21.956Z,95062.22
2022-10-23T07:55:58.863Z,95039.84
2022-10-23T07:58:27.191Z,95055.63
2022-10-23T08:01:01.567Z,95054.31
2022-10-23T08:03:32.874Z,95043.38
2022-10-23T08:06:00.093Z,95051.16
2022-10-23T08:08:27.304Z,95048.44
2022-10-23T08:10:55.246Z,95047.66
2022-10-23T08:13:22.618Z,95059.69
2022-10-23T08:15:50.574Z,95052.47
2022-10-23T08:18:17.261Z,95054.34
2022-10-23T08:20:45.372Z,95052.47
2022-10-23T08:23:12.517Z,95053.25
2022-10-23T08:25:40.206Z,95046.88
2022-10-23T08:28:07.497Z,95059.16
2022-10-23T08:30:34.133Z,95053.25
2022-10-23T08:33:03.570Z,95051.63
2022-10-23T08:35:32.406Z,95054.59
2022-10-23T08:37:59.118Z,95060.50
2022-10-23T08:40:26.112Z,95048.72
2022-10-23T08:43:04.969Z,95043.09
2022-10-23T08:45:43.064Z,95047.63
2022-10-23T08:48:19.957Z,95047.91
2022-10-23T08:50:50.460Z,95039.34
2022-10-23T08:53:41.881Z,95037.22
2022-10-23T08:56:22.789Z,95032.38
2022-10-23T08:58:54.773Z,95036.13
2022-10-23T09:01:25.291Z,95036.13
2022-10-23T09:03:51.929Z,95024.63
2022-10-23T09:06:36.740Z,95030.50
2022-10-23T09:09:18.277Z,95030.78
2022-10-23T09:12:10.922Z,95038.81
2022-10-23T09:14:58.993Z,95030.78
2022-10-23T09:17:27.858Z,95017.97
2022-10-23T09:20:07.852Z,95015.53
2022-10-23T09:22:34.216Z,95008.84
2022-10-23T09:25:03.053Z,95012.03
2022-10-23T09:27:29.502Z,95013.41
2022-10-23T09:29:56.212Z,95017.31
2022-10-23T09:32:36.731Z,95004.78
2022-10-23T09:35:04.421Z,95019.97
2022-10-23T09:37:33.043Z,95015.06
2022-10-23T09:40:15.661Z,95011.78
2022-10-23T09:43:14.017Z,95022.91
2022-10-23T09:45:40.507Z,95022.56
2022-10-23T09:48:12.922Z,95019.03
2022-10-23T09:50:47.794Z,95023.34
2022-10-23T09:53:22.154Z,95025.84
2022-10-23T09:55:53.658Z,95026.44
2022-10-23T09:58:31.705Z,95030.50
2022-10-23T10:00:58.246Z,95028.63
2022-10-23T10:03:25.168Z,95028.09
2022-10-23T10:06:03.459Z,95036.91
2022-10-23T10:08:40.496Z,95045.38
2022-10-23T10:11:18.030Z,95034.09
2022-10-23T10:14:09.893Z,95037.09
2022-10-23T10:16:43.221Z,95045.03
2022-10-23T10:19:44.550Z,95064.34
2022-10-23T10:22:31.126Z,95080.88
2022-10-23T10:25:13.173Z,95062.81
2022-10-23T10:28:12.402Z,95068.38
2022-10-23T10:30:56.448Z,95071.38
2022-10-23T10:33:53.638Z,95051.34
2022-10-23T10:36:41.441Z,95068.28
2022-10-23T10:39:34.790Z,95024.94
2022-10-23T10:42:07.140Z,95012.78
2022-10-23T10:45:11.024Z,95020.44
2022-10-23T10:47:54.320Z,95006.81
2022-10-23T10:50:28.786Z,95019.19
2022-10-23T10:53:07.536Z,95025.50
2022-10-23T10:55:41.281Z,95020.72
2022-10-23T10:58:31.510Z,95040.81
2022-10-23T11:01:03.545Z,95044.25
2022-10-23T11:03:40.078Z,95049.84
2022-10-23T11:06:21.356Z,95042.53
2022-10-23T11:08:57.740Z,94998.75
2022-10-23T11:11:39.753Z,94959.50
2022-10-23T11:14:07.498Z,94950.00
2022-10-23T11:16:39.896Z,94992.22
2022-10-23T11:19:15.891Z,94980.56
2022-10-23T11:21:55.529Z,94971.56
2022-10-23T11:24:49.444Z,95012.09
2022-10-23T11:27:25.794Z,94966.81
2022-10-23T11:29:55.591Z,94964.94
2022-10-23T11:32:41.281Z,94984.47
2022-10-23T11:35:35.041Z,94980.63
2022-10-23T11:38:09.763Z,94989.72
2022-10-23T11:40:36.292Z,94977.16
2022-10-23T11:43:02.845Z,94962.00
2022-10-23T11:45:36.614Z,94962.56
2022-10-23T11:48:15.645Z,94938.03
2022-10-23T11:50:44.458Z,94933.84
2022-10-23T11:53:31.212Z,94943.41
2022-10-23T11:56:13.141Z,94960.84
2022-10-23T11:58:47.126Z,94961.50
2022-10-23T12:01:30.909Z,94929.31
2022-10-23T12:04:02.840Z,94939.97
2022-10-23T12:06:39.942Z,94940.63
2022-10-23T12:10:00.104Z,94936.28
2022-10-23T12:12:37.480Z,94937.81
2022-10-23T12:15:09.076Z,94935.94
2022-10-23T12:17:38.124Z,94921.94
2022-10-23T12:20:11.095Z,94904.94
2022-10-23T12:22:50.472Z,94893.22
2022-10-23T12:25:24.255Z,94907.78
2022-10-23T12:28:06.037Z,94918.81
2022-10-23T12:30:47.465Z,94919.97
2022-10-23T12:33:19.393Z,94924.66
2022-10-23T12:36:07.537Z,94917.69
2022-10-23T12:38:42.701Z,94907.28
2022-10-23T12:41:16.531Z,94887.22
2022-10-23T12:43:45.769Z,94883.09
2022-10-23T12:46:30.166Z,94885.88
2022-10-23T12:48:57.857Z,94889.59
2022-10-23T12:51:27.058Z,94886.00
2022-10-23T12:53:53.950Z,94888.81
2022-10-23T12:56:20.697Z,94883.84
2022-10-23T12:58:50.002Z,94900.75
2022-10-23T13:01:31.407Z,94890.72
2022-10-23T13:06:49.847Z,94889.22
2022-10-23T13:09:40.445Z,94884.56
2022-10-23T13:12:08.490Z,94877.94
2022-10-23T13:14:39.384Z,94886.31
2022-10-23T13:17:11.267Z,94874.31
2022-10-23T13:19:38.068Z,94864.88
2022-10-23T13:22:13.932Z,94865.09
2022-10-23T13:24:41.100Z,94860.69
2022-10-23T13:27:32.881Z,94872.63
2022-10-23T13:29:59.739Z,94884.41
2022-10-23T13:32:29.277Z,94882.13
2022-10-23T13:35:10.029Z,94887.56
2022-10-23T13:40:23.639Z,94863.06
2022-10-23T13:42:50.714Z,94856.19
2022-10-23T13:45:24.674Z,94849.00
2022-10-23T13:47:51.930Z,94862.28
2022-10-23T13:50:18.798Z,94859.69
2022-10-23T13:52:45.328Z,94853.09
2022-10-23T13:55:20.352Z,94851.16
2022-10-23T13:57:46.878Z,94860.22
2022-10-23T14:00:13.768Z,94857.97
2022-10-23T14:02:40.302Z,94850.47
2022-10-23T14:05:06.994Z,94827.78
2022-10-23T14:07:36.305Z,94824.78
2022-10-23T14:10:04.325Z,94820.59
2022-10-23T14:12:31.587Z,94825.09
2022-10-23T14:14:58.135Z,94838.69
2022-10-23T14:17:24.604Z,94829.72
2022-10-23T14:19:51.081Z,94836.63
2022-10-23T14:22:17.909Z,94828.78
2022-10-23T14:24:44.418Z,94832.69
2022-10-23T14:27:11.004Z,94820.50
2022-10-23T14:29:37.466Z,94832.41
2022-10-23T14:32:04.534Z,94827.09
2022-10-23T14:34:31.003Z,94827.34
2022-10-23T14:37:08.204Z,94831.13
2022-10-23T14:39:35.193Z,94826.47
2022-10-23T14:42:01.792Z,94824.22
2022-10-23T14:44:28.649Z,94822.25
2022-10-23T14:46:55.128Z,94815.03
2022-10-23T14:49:21.704Z,94808.31
2022-10-23T14:51:48.140Z,94809.81
2022-10-23T14:54:14.718Z,94814.81
2022-10-23T14:56:41.228Z,94816.91
2022-10-23T14:59:08.106Z,94806.81
2022-10-23T15:01:45.778Z,94798.38
2022-10-23T15:04:14.755Z,94806.53
2022-10-23T15:06:41.502Z,94809.41
2022-10-23T15:09:07.972Z,94809.63
2022-10-23T15:11:34.468Z,94814.50
2022-10-23T15:14:03.772Z,94797.66
2022-10-23T15:16:30.772Z,94798.94
2022-10-23T15:18:57.313Z,94792.72
2022-10-23T15:21:24.243Z,94790.03
2022-10-23T15:23:51.047Z,94780.66
2022-10-23T15:26:19.111Z,94782.63
2022-10-23T15:28:45.795Z,94787.97
2022-10-23T15:31:30.615Z,94786.09
2022-10-23T15:33:57.621Z,94785.47
2022-10-23T15:36:24.836Z,94794.78
2022-10-23T15:38:52.212Z,94785.59
2022-10-23T15:41:23.836Z,94798.41
2022-10-23T15:46:21.758Z,94808.44
2022-10-23T15:48:48.243Z,94821.81
2022-10-23T15:51:14.716Z,94812.50
2022-10-23T15:53:41.160Z,94823.72
2022-10-23T15:56:09.820Z,94809.84
2022-10-23T15:58:36.377Z,94810.69
2022-10-23T16:01:04.115Z,94805.88
2022-10-23T16:03:30.658Z,94804.47
2022-10-23T16:05:57.177Z,94814.97
2022-10-23T16:08:23.654Z,94808.31
2022-10-23T16:10:50.113Z,94827.50
2022-10-23T16:13:16.554Z,94823.84
2022-10-23T16:15:43.051Z,94832.38
2022-10-23T16:18:10.131Z,94841.44
2022-10-23T16:20:39.977Z,94840.91
2022-10-23T16:23:06.435Z,94841.94
2022-10-23T16:25:36.131Z,94839.25
2022-10-23T16:28:02.773Z,94849.41
2022-10-23T16:30:29.520Z,94857.16
2022-10-23T16:32:56.142Z,94844.59
2022-10-23T16:35:22.946Z,94851.34
2022-10-23T16:37:49.528Z,94851.91
2022-10-23T16:40:16.148Z,94853.50
2022-10-23T16:42:42.758Z,94859.19
2022-10-23T16:45:09.966Z,94875.22
2022-10-23T16:47:36.422Z,94873.13
2022-10-23T16:50:03.752Z,94862.94
2022-10-23T16:52:30.285Z,94875.81
2022-10-23T16:54:56.917Z,94869.88
2022-10-23T16:57:23.401Z,94873.94
2022-10-23T16:59:49.853Z,94876.13
2022-10-23T17:02:16.516Z,94878.31
2022-10-23T17:04:43.195Z,94895.97
2022-10-23T17:07:09.751Z,94900.75
2022-10-23T17:09:36.266Z,94908.22
2022-10-23T17:12:06.011Z,94902.06
2022-10-23T17:14:32.524Z,94906.81
2022-10-23T17:17:00.880Z,94930.09
2022-10-23T17:19:45.932Z,94936.28
2022-10-23T17:22:13.988Z,94946.28
2022-10-23T17:24:41.753Z,94984.78
2022-10-23T17:27:08.212Z,94987.50
2022-10-23T17:29:37.174Z,95014.25
2022-10-23T17:32:03.705Z,95038.84
2022-10-23T17:34:30.204Z,95048.69
2022-10-23T17:36:59.502Z,95051.13
2022-10-23T17:39:28.102Z,95067.19
2022-10-23T17:41:55.231Z,95079.22
2022-10-23T17:44:22.041Z,95077.31
2022-10-23T17:46:52.733Z,95096.25
2022-10-23T17:49:19.421Z,95105.06
2022-10-23T17:51:46.051Z,95114.69
2022-10-23T17:54:12.998Z,95137.16
2022-10-23T17:56:39.717Z,95152.91
2022-10-23T17:59:09.938Z,95148.38
2022-10-23T18:01:36.564Z,95147.28
2022-10-23T18:04:05.824Z,95145.69
2022-10-23T18:06:41.555Z,95146.25
2022-10-23T18:09:08.738Z,95141.34
2022-10-23T18:11:37.573Z,95138.13
2022-10-23T18:14:05.493Z,95146.75
2022-10-23T18:16:34.965Z,95144.34
2022-10-23T18:19:02.103Z,95125.91
2022-10-23T18:21:31.701Z,95125.19
2022-10-23T18:23:59.655Z,95121.72
2022-10-23T18:26:28.707Z,95131.13
2022-10-23T18:28:57.108Z,95144.50
2022-10-23T18:31:24.852Z,95141.81
2022-10-23T18:34:11.363Z,95155.44
2022-10-23T18:36:39.736Z,95151.94
2022-10-23T18:39:09.279Z,95137.28
2022-10-23T18:41:41.379Z,95142.91
2022-10-23T18:44:08.465Z,95101.69
2022-10-23T18:46:35.578Z,95129.78
2022-10-23T18:49:02.146Z,95145.88
2022-10-23T18:51:30.839Z,95175.81
2022-10-23T18:54:00.587Z,95145.81
2022-10-23T18:56:27.081Z,95187.59
2022-10-23T18:58:56.245Z,95165.09
2022-10-23T19:01:23.558Z,95175.53
2022-10-23T19:03:50.326Z,95163.34
2022-10-23T19:06:17.914Z,95143.09
2022-10-23T19:08:45.386Z,95174.09
2022-10-23T19:11:15.462Z,95132.63
2022-10-23T19:13:42.226Z,95109.78
2022-10-23T19:16:21.416Z,95068.25
2022-10-23T19:18:59.556Z,95112.47
2022-10-23T19:21:28.525Z,95087.16
2022-10-23T19:23:56.763Z,95096.47
2022-10-23T19:26:23.257Z,95067.38
2022-10-23T19:28:49.743Z,95050.28
2022-10-23T19:31:16.318Z,95023.28
2022-10-23T19:33:42.938Z,95039.81
2022-10-23T19:36:13.837Z,95073.81
2022-10-23T19:38:41.599Z,95076.81
2022-10-23T19:41:08.724Z,95066.88
2022-10-23T19:43:35.465Z,95043.34
2022-10-23T19:46:05.065Z,95029.66
2022-10-23T19:48:34.430Z,95026.22
2022-10-23T19:51:01.196Z,95011.28
2022-10-23T19:53:27.896Z,95004.06
2022-10-23T19:56:08.090Z,95018.25
2022-10-23T19:58:37.826Z,95014.75
2022-10-23T20:01:09.878Z,95004.09
2022-10-23T20:03:36.454Z,95002.25
2022-10-23T20:06:03.121Z,95005.50
2022-10-23T20:08:32.691Z,95002.78
2022-10-23T20:11:01.692Z,94988.88
2022-10-23T20:13:28.204Z,94987.81
2022-10-23T20:15:57.070Z,94984.34
2022-10-23T20:18:23.938Z,94988.88
2022-10-23T20:20:50.436Z,94999.56
2022-10-23T20:23:19.257Z,95019.88
2022-10-23T20:25:48.107Z,95017.19
2022-10-23T20:28:15.344Z,95011.00
2022-10-23T20:30:42.412Z,95015.81
2022-10-23T20:33:09.277Z,95061.84
2022-10-23T20:35:42.512Z,95058.13
2022-10-23T20:38:09.954Z,95038.63
2022-10-23T20:40:37.086Z,94992.16
2022-10-23T20:43:06.576Z,94977.19
2022-10-23T20:45:34.033Z,94971.31
2022-10-23T20:48:00.694Z,94976.69
2022-10-23T20:50:27.212Z,94988.47
2022-10-23T20:52:53.724Z,94995.97
2022-10-23T20:55:20.471Z,94999.69
2022-10-23T20:57:47.215Z,95009.28
2022-10-23T21:00:14.087Z,95033.75
2022-10-23T21:02:40.676Z,95042.25
2022-10-23T21:05:07.666Z,95071.59
2022-10-23T21:07:34.206Z,95073.75
2022-10-23T21:10:01.693Z,95071.53
2022-10-23T21:12:28.171Z,95053.59
2022-10-23T21:14:54.641Z,95048.47
2022-10-23T21:17:21.197Z,95048.38
2022-10-23T21:19:47.783Z,95054.56
2022-10-23T21:22:14.251Z,95051.84
2022-10-23T21:24:40.787Z,95059.34
2022-10-23T21:27:07.314Z,95042.63
2022-10-23T21:29:33.935Z,95030.28
2022-10-23T21:32:00.896Z,95028.06
2022-10-23T21:34:28.167Z,95019.81
2022-10-23T21:39:42.150Z,95031.97
2022-10-23T21:42:08.656Z,95026.31
2022-10-23T21:44:35.287Z,95036.81
2022-10-23T21:47:01.928Z,95030.75
2022-10-23T21:49:28.424Z,95017.22
2022-10-23T21:51:55.141Z,95007.13
2022-10-23T21:54:22.142Z,95012.16
2022-10-23T21:56:50.625Z,95035.41
2022-10-23T21:59:19.507Z,95044.53
2022-10-23T22:01:47.341Z,95034.16
2022-10-23T22:04:15.389Z,95026.94
2022-10-23T22:06:43.101Z,95039.53
2022-10-23T22:09:15.391Z,95033.44
2022-10-23T22:11:42.159Z,95040.38
2022-10-23T22:14:09.064Z,95045.13
2022-10-23T22:16:35.619Z,95045.31
2022-10-23T22:19:02.808Z,95048.28
2022-10-23T22:21:30.522Z,95023.19
2022-10-23T22:23:58.267Z,95009.78
2022-10-23T22:26:31.611Z,95018.25
2022-10-23T22:29:00.936Z,95059.66
2022-10-23T22:31:30.497Z,95077.97
2022-10-23T22:33:57.725Z,95062.47
2022-10-23T22:36:25.420Z,95065.69
2022-10-23T22:38:52.609Z,95103.09
2022-10-23T22:41:19.315Z,95161.31
2022-10-23T22:43:45.799Z,95152.22
2022-10-23T22:46:14.429Z,95168.75
2022-10-23T22:48:40.941Z,95181.25
2022-10-23T22:51:09.303Z,95148.13
2022-10-23T22:53:35.862Z,95132.25
2022-10-23T22:56:06.490Z,95129.34
2022-10-23T22:58:33.331Z,95124.41
2022-10-23T23:01:09.995Z,95141.78
2022-10-23T23:03:37.324Z,95126.47
2022-10-23T23:06:05.656Z,95134.72
2022-10-23T23:08:33.423Z,95149.13
2022-10-23T23:11:00.313Z,95124.09
2022-10-23T23:13:27.354Z,95115.03
2022-10-23T23:15:53.982Z,95110.88
2022-10-23T23:18:20.668Z,95101.56
2022-10-23T23:20:47.429Z,95098.59
2022-10-23T23:23:14.488Z,95130.13
2022-10-23T23:25:42.492Z,95101.66
2022-10-23T23:28:08.940Z,95108.72
2022-10-23T23:30:35.445Z,95127.06
2022-10-23T23:33:02.006Z,95125.28
2022-10-23T23:35:28.471Z,95118.31
2022-10-23T23:37:55.234Z,95158.06
2022-10-23T23:40:21.824Z,95159.53
2022-10-23T23:42:48.490Z,95139.75
2022-10-23T23:45:15.416Z,95132.88
2022-10-23T23:47:42.220Z,95139.25
2022-10-23T23:50:10.199Z,95170.53
2022-10-23T23:52:36.886Z,95157.81
2022-10-23T23:55:07.332Z,95156.53
2022-10-23T23:57:33.897Z,95123.16
